createdAt,value
2019-02-20T00:00:24.240Z,100421.56
2019-02-20T00:00:57.475Z,100415.03
2019-02-20T00:01:30.712Z,100414.14
2019-02-20T00:02:01.931Z,100405.54
2019-02-20T00:02:33.249Z,100405.54
2019-02-20T00:03:04.495Z,100415.86
2019-02-20T00:03:36.834Z,100396.40
2019-02-20T00:04:08.083Z,100429.81
2019-02-20T00:04:39.375Z,100418.95
2019-02-20T00:05:10.629Z,100419.30
2019-02-20T00:05:41.998Z,100420.61
2019-02-20T00:06:13.225Z,100424.52
2019-02-20T00:06:44.670Z,100417.10
2019-02-20T00:07:16.915Z,100414.08
2019-02-20T00:07:48.260Z,100406.16
2019-02-20T00:08:19.727Z,100421.14
2019-02-20T00:08:51.151Z,100413.25
2019-02-20T00:09:22.425Z,100426.39
2019-02-20T00:09:53.808Z,100418.11
2019-02-20T00:10:25.042Z,100398.59
2019-02-20T00:10:56.434Z,100411.11
2019-02-20T00:11:27.681Z,100419.36
2019-02-20T00:11:59.029Z,100418.11
2019-02-20T00:12:30.302Z,100414.49
2019-02-20T00:13:01.723Z,100421.58
2019-02-20T00:13:32.973Z,100405.27
2019-02-20T00:14:04.363Z,100394.67
2019-02-20T00:14:35.732Z,100427.25
2019-02-20T00:15:07.109Z,100411.80
2019-02-20T00:15:38.563Z,100417.22
2019-02-20T00:16:09.882Z,100423.75
2019-02-20T00:16:41.267Z,100426.37
2019-02-20T00:17:12.629Z,100426.37
2019-02-20T00:17:43.901Z,100430.28
2019-02-20T00:18:15.304Z,100421.14
2019-02-20T00:18:46.563Z,100417.16
2019-02-20T00:19:17.875Z,100423.34
2019-02-20T00:19:49.123Z,100422.89
2019-02-20T00:20:20.452Z,100424.20
2019-02-20T00:20:51.708Z,100421.17
2019-02-20T00:21:23.127Z,100425.09
2019-02-20T00:21:54.465Z,100418.55
2019-02-20T00:22:25.795Z,100415.94
2019-02-20T00:22:57.049Z,100423.36
2019-02-20T00:23:28.428Z,100392.95
2019-02-20T00:23:59.735Z,100414.64
2019-02-20T00:24:31.048Z,100407.08
2019-02-20T00:25:04.585Z,100426.86
2019-02-20T00:25:35.896Z,100424.25
2019-02-20T00:26:07.147Z,100416.41
2019-02-20T00:26:38.489Z,100411.19
2019-02-20T00:27:09.740Z,100406.63
2019-02-20T00:27:41.048Z,100406.09
2019-02-20T00:28:12.319Z,100420.33
2019-02-20T00:28:43.765Z,100394.06
2019-02-20T00:29:15.010Z,100422.11
2019-02-20T00:29:46.374Z,100426.45
2019-02-20T00:30:17.624Z,100420.33
2019-02-20T00:30:49.065Z,100410.96
2019-02-20T00:31:20.438Z,100421.17
2019-02-20T00:31:51.804Z,100419.03
2019-02-20T00:32:23.185Z,100420.33
2019-02-20T00:32:54.514Z,100420.33
2019-02-20T00:33:25.936Z,100428.17
2019-02-20T00:33:57.362Z,100428.17
2019-02-20T00:34:28.721Z,100421.22
2019-02-20T00:35:00.105Z,100421.22
2019-02-20T00:35:31.637Z,100433.04
2019-02-20T00:36:03.014Z,100435.17
2019-02-20T00:36:34.435Z,100406.98
2019-02-20T00:37:05.683Z,100406.98
2019-02-20T00:37:37.029Z,100429.95
2019-02-20T00:38:08.303Z,100429.95
2019-02-20T00:38:39.715Z,100419.44
2019-02-20T00:39:11.086Z,100411.32
2019-02-20T00:39:42.396Z,100411.32
2019-02-20T00:40:13.735Z,100426.86
2019-02-20T00:40:45.256Z,100418.38
2019-02-20T00:41:16.583Z,100416.80
2019-02-20T00:41:47.963Z,100412.36
2019-02-20T00:42:19.241Z,100430.31
2019-02-20T00:42:50.649Z,100423.78
2019-02-20T00:43:21.903Z,100423.78
2019-02-20T00:43:55.133Z,100432.48
2019-02-20T00:44:37.955Z,100432.48
2019-02-20T00:45:30.139Z,100437.70
2019-02-20T00:46:09.151Z,100431.17
2019-02-20T00:46:48.090Z,100432.48
2019-02-20T00:47:29.886Z,100432.48
2019-02-20T00:48:11.934Z,100429.39
2019-02-20T00:48:45.089Z,100423.41
2019-02-20T00:49:18.312Z,100416.87
2019-02-20T00:49:49.545Z,100416.87
2019-02-20T00:50:22.726Z,100442.93
2019-02-20T00:50:55.859Z,100448.09
2019-02-20T00:51:45.617Z,100439.01
2019-02-20T00:52:19.772Z,100439.01
2019-02-20T00:52:53.012Z,100422.89
2019-02-20T00:53:26.188Z,100422.89
2019-02-20T00:54:02.170Z,100429.42
2019-02-20T00:54:34.414Z,100442.54
2019-02-20T00:55:07.745Z,100413.16
2019-02-20T00:55:38.968Z,100433.81
2019-02-20T00:56:10.322Z,100433.87
2019-02-20T00:56:41.599Z,100427.70
2019-02-20T00:57:12.892Z,100440.76
2019-02-20T00:57:44.468Z,100440.76
2019-02-20T00:58:15.735Z,100435.12
2019-02-20T00:58:47.024Z,100430.31
2019-02-20T00:59:18.308Z,100429.48
2019-02-20T00:59:49.613Z,100413.84
2019-02-20T01:00:20.880Z,100435.09
2019-02-20T01:00:52.147Z,100432.03
2019-02-20T01:01:23.441Z,100432.03
2019-02-20T01:01:54.823Z,100433.78
2019-02-20T01:02:26.084Z,100429.87
2019-02-20T01:02:57.374Z,100425.48
2019-02-20T01:03:28.662Z,100435.12
2019-02-20T01:04:00.326Z,100431.62
2019-02-20T01:04:31.597Z,100428.59
2019-02-20T01:05:04.569Z,100430.78
2019-02-20T01:05:35.938Z,100423.36
2019-02-20T01:06:07.251Z,100425.55
2019-02-20T01:06:38.677Z,100425.09
2019-02-20T01:07:09.921Z,100426.86
2019-02-20T01:07:41.417Z,100422.11
2019-02-20T01:08:12.685Z,100424.73
2019-02-20T01:08:43.995Z,100416.13
2019-02-20T01:09:15.257Z,100416.13
2019-02-20T01:09:46.609Z,100414.34
2019-02-20T01:10:17.867Z,100433.45
2019-02-20T01:10:49.155Z,100433.87
2019-02-20T01:11:20.434Z,100435.59
2019-02-20T01:11:51.709Z,100432.56
2019-02-20T01:12:22.968Z,100441.70
2019-02-20T01:12:54.290Z,100430.31
2019-02-20T01:13:25.648Z,100430.31
2019-02-20T01:13:56.986Z,100432.19
2019-02-20T01:14:28.287Z,100438.15
2019-02-20T01:14:59.566Z,100440.34
2019-02-20T01:15:30.842Z,100430.78
2019-02-20T01:16:02.122Z,100438.62
2019-02-20T01:16:33.413Z,100437.73
2019-02-20T01:17:04.718Z,100443.84
2019-02-20T01:17:36.010Z,100437.73
2019-02-20T01:18:07.398Z,100434.70
2019-02-20T01:18:38.792Z,100438.15
2019-02-20T01:19:10.051Z,100436.84
2019-02-20T01:19:41.553Z,100443.02
2019-02-20T01:20:12.872Z,100434.23
2019-02-20T01:20:44.234Z,100441.23
2019-02-20T01:21:15.517Z,100436.01
2019-02-20T01:21:46.796Z,100438.62
2019-02-20T01:22:18.203Z,100445.09
2019-02-20T01:22:59.469Z,100445.09
2019-02-20T01:23:22.648Z,100449.02
2019-02-20T01:23:53.971Z,100445.09
2019-02-20T01:24:25.236Z,100439.42
2019-02-20T01:24:56.536Z,100431.95
2019-02-20T01:25:27.824Z,100437.70
2019-02-20T01:25:59.149Z,100428.98
2019-02-20T01:26:30.600Z,100418.19
2019-02-20T01:27:01.894Z,100431.12
2019-02-20T01:27:33.232Z,100442.45
2019-02-20T01:28:04.523Z,100416.85
2019-02-20T01:28:35.854Z,100439.37
2019-02-20T01:29:07.147Z,100432.36
2019-02-20T01:29:38.481Z,100421.74
2019-02-20T01:30:11.136Z,100442.45
2019-02-20T01:30:42.449Z,100455.05
2019-02-20T01:31:13.716Z,100442.93
2019-02-20T01:31:45.285Z,100435.86
2019-02-20T01:32:16.571Z,100432.01
2019-02-20T01:32:47.861Z,100430.70
2019-02-20T01:33:19.151Z,100422.10
2019-02-20T01:33:50.423Z,100422.10
2019-02-20T01:34:21.677Z,100430.28
2019-02-20T01:34:52.966Z,100448.57
2019-02-20T01:35:24.257Z,100428.86
2019-02-20T01:35:55.539Z,100446.84
2019-02-20T01:36:26.825Z,100444.23
2019-02-20T01:36:58.157Z,100443.77
2019-02-20T01:37:29.529Z,100422.99
2019-02-20T01:38:00.823Z,100430.70
2019-02-20T01:38:32.109Z,100448.16
2019-02-20T01:39:04.543Z,100446.38
2019-02-20T01:39:37.438Z,100448.16
2019-02-20T01:40:08.731Z,100448.09
2019-02-20T01:40:40.019Z,100444.23
2019-02-20T01:41:11.423Z,100441.63
2019-02-20T01:41:42.759Z,100419.91
2019-02-20T01:42:14.163Z,100419.91
2019-02-20T01:42:45.605Z,100425.55
2019-02-20T01:43:16.948Z,100430.28
2019-02-20T01:43:48.235Z,100439.70
2019-02-20T01:44:19.566Z,100431.95
2019-02-20T01:44:50.814Z,100426.02
2019-02-20T01:45:22.169Z,100441.09
2019-02-20T01:45:53.405Z,100441.09
2019-02-20T01:46:24.739Z,100430.64
2019-02-20T01:46:55.987Z,100426.72
2019-02-20T01:47:27.300Z,100444.59
2019-02-20T01:47:58.555Z,100443.28
2019-02-20T01:48:29.933Z,100431.95
2019-02-20T01:49:01.176Z,100431.95
2019-02-20T01:49:32.494Z,100444.66
2019-02-20T01:50:05.661Z,100440.26
2019-02-20T01:50:37.008Z,100440.26
2019-02-20T01:51:08.278Z,100438.06
2019-02-20T01:51:39.588Z,100437.59
2019-02-20T01:52:10.842Z,100433.67
2019-02-20T01:52:42.212Z,100424.44
2019-02-20T01:53:13.494Z,100441.50
2019-02-20T01:53:45.059Z,100452.78
2019-02-20T01:54:16.303Z,100431.89
2019-02-20T01:54:47.624Z,100449.31
2019-02-20T01:55:19.859Z,100449.31
2019-02-20T01:55:51.177Z,100435.36
2019-02-20T01:56:22.425Z,100434.06
2019-02-20T01:56:53.757Z,100434.06
2019-02-20T01:57:25.037Z,100421.83
2019-02-20T01:57:56.363Z,100424.44
2019-02-20T01:58:27.716Z,100437.09
2019-02-20T01:58:59.106Z,100436.61
2019-02-20T01:59:30.351Z,100437.98
2019-02-20T02:00:01.875Z,100434.50
2019-02-20T02:00:33.331Z,100417.20
2019-02-20T02:01:04.649Z,100417.20
2019-02-20T02:01:35.984Z,100433.64
2019-02-20T02:02:07.356Z,100435.39
2019-02-20T02:02:38.627Z,100436.28
2019-02-20T02:03:09.938Z,100430.64
2019-02-20T02:03:41.183Z,100433.67
2019-02-20T02:04:12.544Z,100437.17
2019-02-20T02:04:43.909Z,100428.86
2019-02-20T02:05:16.034Z,100428.86
2019-02-20T02:05:47.325Z,100437.59
2019-02-20T02:06:18.649Z,100421.19
2019-02-20T02:06:49.947Z,100421.19
2019-02-20T02:07:21.373Z,100436.28
2019-02-20T02:07:52.607Z,100450.23
2019-02-20T02:08:24.053Z,100441.09
2019-02-20T02:08:55.344Z,100435.86
2019-02-20T02:09:26.690Z,100444.53
2019-02-20T02:09:58.030Z,100410.06
2019-02-20T02:10:29.368Z,100412.40
2019-02-20T02:11:00.720Z,100429.58
2019-02-20T02:11:32.036Z,100432.28
2019-02-20T02:12:03.349Z,100451.39
2019-02-20T02:12:34.620Z,100415.81
2019-02-20T02:13:06.001Z,100415.81
2019-02-20T02:13:37.257Z,100444.84
2019-02-20T02:14:08.560Z,100437.86
2019-02-20T02:14:40.827Z,100432.55
2019-02-20T02:15:19.991Z,100432.63
2019-02-20T02:15:46.368Z,100421.45
2019-02-20T02:16:17.678Z,100451.78
2019-02-20T02:16:48.947Z,100451.78
2019-02-20T02:17:20.324Z,100440.03
2019-02-20T02:17:51.584Z,100446.14
2019-02-20T02:18:22.883Z,100437.42
2019-02-20T02:18:54.236Z,100445.25
2019-02-20T02:19:25.555Z,100440.03
2019-02-20T02:19:56.806Z,100441.77
2019-02-20T02:20:28.135Z,100444.84
2019-02-20T02:20:59.391Z,100441.34
2019-02-20T02:21:30.704Z,100439.14
2019-02-20T02:22:01.955Z,100443.95
2019-02-20T02:22:33.266Z,100453.92
2019-02-20T02:23:04.479Z,100429.31
2019-02-20T02:23:35.793Z,100437.36
2019-02-20T02:24:07.066Z,100435.64
2019-02-20T02:24:38.342Z,100442.11
2019-02-20T02:25:09.620Z,100444.30
2019-02-20T02:25:40.877Z,100435.98
2019-02-20T02:26:12.219Z,100442.11
2019-02-20T02:26:43.583Z,100433.37
2019-02-20T02:27:15.081Z,100444.27
2019-02-20T02:27:46.455Z,100434.25
2019-02-20T02:28:17.723Z,100435.55
2019-02-20T02:28:50.023Z,100439.91
2019-02-20T02:29:21.369Z,100441.22
2019-02-20T02:29:52.655Z,100426.02
2019-02-20T02:30:23.959Z,100430.35
2019-02-20T02:30:55.644Z,100439.91
2019-02-20T02:31:26.926Z,100444.72
2019-02-20T02:31:58.213Z,100435.08
2019-02-20T02:32:29.501Z,100445.52
2019-02-20T02:33:01.313Z,100445.52
2019-02-20T02:33:32.620Z,100452.47
2019-02-20T02:34:03.979Z,100436.32
2019-02-20T02:34:35.353Z,100446.20
2019-02-20T02:35:06.641Z,100428.06
2019-02-20T02:35:37.940Z,100443.27
2019-02-20T02:36:10.221Z,100439.61
2019-02-20T02:36:41.579Z,100438.91
2019-02-20T02:37:13.888Z,100448.46
2019-02-20T02:37:45.179Z,100448.46
2019-02-20T02:38:16.452Z,100436.11
2019-02-20T02:38:47.757Z,100444.48
2019-02-20T02:39:19.085Z,100454.09
2019-02-20T02:39:50.314Z,100449.29
2019-02-20T02:40:21.632Z,100425.88
2019-02-20T02:40:53.930Z,100434.54
2019-02-20T02:41:25.234Z,100434.54
2019-02-20T02:41:56.585Z,100453.15
2019-02-20T02:42:28.025Z,100460.16
2019-02-20T02:42:59.298Z,100460.16
2019-02-20T02:43:30.566Z,100451.42
2019-02-20T02:44:01.876Z,100458.02
2019-02-20T02:44:33.167Z,100461.94
2019-02-20T02:45:04.751Z,100457.55
2019-02-20T02:45:36.177Z,100459.73
2019-02-20T02:46:07.436Z,100439.76
2019-02-20T02:46:38.870Z,100458.84
2019-02-20T02:47:10.126Z,100458.84
2019-02-20T02:47:41.456Z,100460.56
2019-02-20T02:48:12.708Z,100464.07
2019-02-20T02:48:44.139Z,100454.75
2019-02-20T02:49:15.365Z,100430.92
2019-02-20T02:49:46.693Z,100467.52
2019-02-20T02:50:17.946Z,100466.56
2019-02-20T02:50:49.266Z,100464.84
2019-02-20T02:51:20.533Z,100447.92
2019-02-20T02:51:51.861Z,100468.69
2019-02-20T02:52:23.129Z,100459.34
2019-02-20T02:52:54.444Z,100469.52
2019-02-20T02:53:30.625Z,100469.05
2019-02-20T02:53:58.875Z,100468.19
2019-02-20T02:54:30.165Z,100467.72
2019-02-20T02:55:01.510Z,100469.91
2019-02-20T02:55:32.895Z,100474.66
2019-02-20T02:56:06.773Z,100455.72
2019-02-20T02:56:38.123Z,100470.68
2019-02-20T02:57:09.486Z,100460.65
2019-02-20T02:57:40.862Z,100453.85
2019-02-20T02:58:12.278Z,100453.85
2019-02-20T02:58:43.631Z,100470.27
2019-02-20T02:59:15.293Z,100476.80
2019-02-20T02:59:47.622Z,100473.29
2019-02-20T03:00:18.861Z,100474.18
2019-02-20T03:00:50.187Z,100463.71
2019-02-20T03:01:21.437Z,100471.95
2019-02-20T03:01:52.746Z,100474.56
2019-02-20T03:02:24.108Z,100456.81
2019-02-20T03:02:55.531Z,100466.26
2019-02-20T03:03:26.773Z,100467.56
2019-02-20T03:03:58.198Z,100474.09
2019-02-20T03:04:29.498Z,100471.89
2019-02-20T03:05:00.928Z,100457.86
2019-02-20T03:05:32.303Z,100459.48
2019-02-20T03:06:03.676Z,100455.98
2019-02-20T03:06:35.118Z,100477.05
2019-02-20T03:07:06.481Z,100464.89
2019-02-20T03:07:37.868Z,100470.53
2019-02-20T03:08:09.244Z,100470.53
2019-02-20T03:08:41.612Z,100451.09
2019-02-20T03:09:13.963Z,100451.09
2019-02-20T03:09:45.279Z,100469.22
2019-02-20T03:10:16.535Z,100467.91
2019-02-20T03:10:47.847Z,100467.09
2019-02-20T03:11:19.145Z,100469.70
2019-02-20T03:11:50.429Z,100471.42
2019-02-20T03:12:21.804Z,100474.03
2019-02-20T03:12:53.052Z,100474.03
2019-02-20T03:13:24.327Z,100475.81
2019-02-20T03:13:55.596Z,100475.81
2019-02-20T03:14:27.845Z,100477.05
2019-02-20T03:14:59.141Z,100460.97
2019-02-20T03:15:30.425Z,100472.28
2019-02-20T03:16:01.765Z,100474.89
2019-02-20T03:16:33.148Z,100474.89
2019-02-20T03:17:05.572Z,100473.11
2019-02-20T03:17:36.869Z,100476.20
2019-02-20T03:18:08.183Z,100467.41
2019-02-20T03:18:39.484Z,100467.41
2019-02-20T03:19:10.818Z,100472.22
2019-02-20T03:19:42.234Z,100450.55
2019-02-20T03:20:13.467Z,100468.66
2019-02-20T03:20:44.791Z,100468.66
2019-02-20T03:21:16.053Z,100470.34
2019-02-20T03:21:47.451Z,100480.80
2019-02-20T03:22:18.701Z,100480.80
2019-02-20T03:22:50.090Z,100469.88
2019-02-20T03:23:21.339Z,100478.11
2019-02-20T03:23:52.795Z,100472.42
2019-02-20T03:24:24.131Z,100461.23
2019-02-20T03:24:55.475Z,100461.23
2019-02-20T03:25:26.731Z,100464.66
2019-02-20T03:25:58.049Z,100466.86
2019-02-20T03:26:29.331Z,100466.86
2019-02-20T03:27:00.666Z,100465.08
2019-02-20T03:27:31.936Z,100461.13
2019-02-20T03:28:03.296Z,100461.13
2019-02-20T03:28:34.535Z,100477.07
2019-02-20T03:29:05.862Z,100460.66
2019-02-20T03:29:37.118Z,100475.67
2019-02-20T03:30:08.443Z,100475.67
2019-02-20T03:30:39.751Z,100479.08
2019-02-20T03:31:11.122Z,100479.08
2019-02-20T03:31:42.449Z,100479.97
2019-02-20T03:32:13.736Z,100479.97
2019-02-20T03:32:45.028Z,100490.35
2019-02-20T03:33:16.352Z,100490.35
2019-02-20T03:33:47.583Z,100481.95
2019-02-20T03:34:18.916Z,100487.27
2019-02-20T03:34:50.310Z,100487.27
2019-02-20T03:35:21.600Z,100491.59
2019-02-20T03:35:52.973Z,100493.38
2019-02-20T03:36:24.263Z,100491.66
2019-02-20T03:36:55.538Z,100490.77
2019-02-20T03:37:26.805Z,100488.56
2019-02-20T03:37:58.089Z,100483.34
2019-02-20T03:38:30.588Z,100492.48
2019-02-20T03:39:02.179Z,100483.77
2019-02-20T03:39:35.360Z,100485.07
2019-02-20T03:40:07.329Z,100478.13
2019-02-20T03:40:38.701Z,100461.23
2019-02-20T03:41:09.986Z,100481.95
2019-02-20T03:41:41.521Z,100479.81
2019-02-20T03:42:12.787Z,100483.25
2019-02-20T03:42:44.092Z,100477.63
2019-02-20T03:43:15.370Z,100474.53
2019-02-20T03:43:46.721Z,100481.06
2019-02-20T03:44:18.008Z,100473.64
2019-02-20T03:44:49.252Z,100474.47
2019-02-20T03:45:20.625Z,100463.72
2019-02-20T03:45:51.901Z,100482.30
2019-02-20T03:46:23.163Z,100482.30
2019-02-20T03:46:54.458Z,100473.14
2019-02-20T03:47:25.748Z,100475.33
2019-02-20T03:47:57.140Z,100451.97
2019-02-20T03:48:28.439Z,100458.47
2019-02-20T03:48:59.720Z,100458.47
2019-02-20T03:49:31.016Z,100469.31
2019-02-20T03:50:02.422Z,100469.31
2019-02-20T03:50:33.701Z,100468.80
2019-02-20T03:51:05.002Z,100471.42
2019-02-20T03:51:36.246Z,100474.03
2019-02-20T03:52:07.574Z,100478.38
2019-02-20T03:52:38.800Z,100485.33
2019-02-20T03:53:10.112Z,100467.50
2019-02-20T03:53:50.876Z,100483.16
2019-02-20T03:54:14.580Z,100467.44
2019-02-20T03:54:45.819Z,100467.50
2019-02-20T03:55:18.234Z,100467.50
2019-02-20T03:55:49.532Z,100460.50
2019-02-20T03:56:21.840Z,100460.50
2019-02-20T03:56:53.064Z,100461.23
2019-02-20T03:57:24.394Z,100472.18
2019-02-20T03:57:55.646Z,100472.18
2019-02-20T03:58:26.976Z,100466.07
2019-02-20T03:58:58.230Z,100466.07
2019-02-20T03:59:29.569Z,100462.57
2019-02-20T04:00:00.904Z,100463.87
2019-02-20T04:00:32.176Z,100468.68
2019-02-20T04:01:03.435Z,100456.36
2019-02-20T04:01:34.749Z,100458.63
2019-02-20T04:02:06.004Z,100464.20
2019-02-20T04:02:37.353Z,100464.20
2019-02-20T04:03:08.664Z,100465.50
2019-02-20T04:03:39.999Z,100446.00
2019-02-20T04:04:11.262Z,100440.78
2019-02-20T04:04:42.577Z,100440.78
2019-02-20T04:05:13.890Z,100445.52
2019-02-20T04:05:45.291Z,100452.45
2019-02-20T04:06:16.577Z,100452.45
2019-02-20T04:06:47.842Z,100470.20
2019-02-20T04:07:19.167Z,100470.20
2019-02-20T04:07:50.493Z,100474.60
2019-02-20T04:08:21.779Z,100471.93
2019-02-20T04:08:53.063Z,100471.93
2019-02-20T04:09:24.384Z,100457.27
2019-02-20T04:09:55.744Z,100468.49
2019-02-20T04:10:27.007Z,100469.31
2019-02-20T04:10:58.332Z,100472.28
2019-02-20T04:11:29.623Z,100474.54
2019-02-20T04:12:00.910Z,100474.54
2019-02-20T04:12:32.153Z,100467.95
2019-02-20T04:13:03.448Z,100466.71
2019-02-20T04:13:34.688Z,100459.68
2019-02-20T04:14:06.030Z,100468.84
2019-02-20T04:14:37.322Z,100464.92
2019-02-20T04:15:08.605Z,100456.69
2019-02-20T04:15:39.904Z,100465.82
2019-02-20T04:16:11.230Z,100462.38
2019-02-20T04:16:42.484Z,100457.98
2019-02-20T04:17:13.830Z,100457.16
2019-02-20T04:17:45.228Z,100454.14
2019-02-20T04:18:16.494Z,100454.14
2019-02-20T04:18:47.771Z,100454.58
2019-02-20T04:19:19.062Z,100466.33
2019-02-20T04:19:50.348Z,100463.72
2019-02-20T04:20:21.653Z,100460.25
2019-02-20T04:20:53.994Z,100460.66
2019-02-20T04:21:25.314Z,100468.49
2019-02-20T04:21:56.566Z,100464.16
2019-02-20T04:22:27.891Z,100459.80
2019-02-20T04:22:59.126Z,100441.25
2019-02-20T04:23:30.440Z,100474.16
2019-02-20T04:24:02.974Z,100449.09
2019-02-20T04:24:34.500Z,100445.93
2019-02-20T04:25:05.743Z,100465.88
2019-02-20T04:25:37.063Z,100459.87
2019-02-20T04:26:09.819Z,100459.87
2019-02-20T04:26:41.436Z,100461.08
2019-02-20T04:27:12.702Z,100452.42
2019-02-20T04:27:44.003Z,100452.42
2019-02-20T04:28:15.377Z,100481.89
2019-02-20T04:28:46.668Z,100468.84
2019-02-20T04:29:17.925Z,100448.03
2019-02-20T04:29:49.249Z,100448.03
2019-02-20T04:30:20.581Z,100468.84
2019-02-20T04:30:51.879Z,100473.58
2019-02-20T04:31:23.180Z,100474.37
2019-02-20T04:31:54.448Z,100474.37
2019-02-20T04:32:25.831Z,100464.16
2019-02-20T04:32:58.449Z,100472.50
2019-02-20T04:33:29.988Z,100462.28
2019-02-20T04:34:01.356Z,100462.28
2019-02-20T04:34:32.679Z,100478.23
2019-02-20T04:35:04.166Z,100463.46
2019-02-20T04:35:35.451Z,100475.52
2019-02-20T04:36:06.675Z,100462.70
2019-02-20T04:36:38.031Z,100483.45
2019-02-20T04:37:09.305Z,100483.45
2019-02-20T04:37:40.695Z,100490.92
2019-02-20T04:38:12.062Z,100479.12
2019-02-20T04:38:43.398Z,100479.12
2019-02-20T04:39:14.661Z,100486.53
2019-02-20T04:39:46.061Z,100480.97
2019-02-20T04:40:17.308Z,100480.84
2019-02-20T04:40:48.643Z,100480.84
2019-02-20T04:41:19.966Z,100466.20
2019-02-20T04:41:51.309Z,100475.68
2019-02-20T04:42:22.551Z,100476.58
2019-02-20T04:42:53.843Z,100484.81
2019-02-20T04:43:25.141Z,100494.42
2019-02-20T04:43:56.409Z,100464.61
2019-02-20T04:44:27.634Z,100488.80
2019-02-20T04:44:58.918Z,100484.02
2019-02-20T04:45:30.174Z,100481.89
2019-02-20T04:46:01.455Z,100484.98
2019-02-20T04:46:32.840Z,100484.98
2019-02-20T04:47:05.121Z,100462.28
2019-02-20T04:47:36.380Z,100476.73
2019-02-20T04:48:07.676Z,100478.52
2019-02-20T04:48:39.047Z,100475.20
2019-02-20T04:49:10.337Z,100491.56
2019-02-20T04:49:41.598Z,100491.56
2019-02-20T04:50:12.873Z,100478.07
2019-02-20T04:50:44.454Z,100479.44
2019-02-20T04:51:15.696Z,100481.63
2019-02-20T04:51:47.033Z,100461.72
2019-02-20T04:52:19.307Z,100466.94
2019-02-20T04:52:50.691Z,100478.13
2019-02-20T04:53:21.947Z,100478.13
2019-02-20T04:53:53.258Z,100470.47
2019-02-20T04:54:24.600Z,100474.95
2019-02-20T04:54:55.986Z,100485.20
2019-02-20T04:55:27.231Z,100485.61
2019-02-20T04:55:58.568Z,100478.23
2019-02-20T04:56:29.823Z,100483.89
2019-02-20T04:57:01.120Z,100477.41
2019-02-20T04:57:32.385Z,100484.34
2019-02-20T04:58:14.095Z,100478.30
2019-02-20T04:58:49.229Z,100483.09
2019-02-20T04:59:20.539Z,100477.41
2019-02-20T04:59:51.771Z,100480.08
2019-02-20T05:00:23.120Z,100468.42
2019-02-20T05:00:54.454Z,100488.38
2019-02-20T05:01:26.241Z,100476.64
2019-02-20T05:01:57.547Z,100476.64
2019-02-20T05:02:29.826Z,100486.22
2019-02-20T05:03:02.200Z,100483.61
2019-02-20T05:03:33.478Z,100483.61
2019-02-20T05:04:04.815Z,100474.47
2019-02-20T05:04:36.191Z,100482.36
2019-02-20T05:05:07.545Z,100487.11
2019-02-20T05:05:38.843Z,100491.91
2019-02-20T05:06:10.129Z,100484.97
2019-02-20T05:06:41.534Z,100484.97
2019-02-20T05:07:12.810Z,100484.14
2019-02-20T05:07:44.210Z,100485.39
2019-02-20T05:08:15.493Z,100487.17
2019-02-20T05:08:46.873Z,100480.17
2019-02-20T05:09:18.252Z,100480.17
2019-02-20T05:09:49.556Z,100481.95
2019-02-20T05:10:20.833Z,100479.12
2019-02-20T05:10:52.115Z,100487.11
2019-02-20T05:11:23.394Z,100494.94
2019-02-20T05:11:54.809Z,100491.44
2019-02-20T05:12:26.089Z,100496.66
2019-02-20T05:12:57.352Z,100485.77
2019-02-20T05:13:28.676Z,100492.74
2019-02-20T05:13:59.928Z,100502.28
2019-02-20T05:14:31.245Z,100495.83
2019-02-20T05:15:03.701Z,100491.91
2019-02-20T05:15:35.198Z,100472.84
2019-02-20T05:16:06.467Z,100472.84
2019-02-20T05:16:37.816Z,100495.77
2019-02-20T05:17:09.164Z,100478.96
2019-02-20T05:17:40.523Z,100490.12
2019-02-20T05:18:12.035Z,100494.45
2019-02-20T05:18:43.416Z,100506.20
2019-02-20T05:19:15.873Z,100497.96
2019-02-20T05:19:47.230Z,100496.66
2019-02-20T05:20:18.598Z,100499.27
2019-02-20T05:20:49.948Z,100501.87
2019-02-20T05:21:21.291Z,100484.66
2019-02-20T05:21:52.585Z,100496.66
2019-02-20T05:22:23.880Z,100478.93
2019-02-20T05:22:55.145Z,100478.93
2019-02-20T05:23:26.418Z,100502.73
2019-02-20T05:23:57.700Z,100500.54
2019-02-20T05:24:28.965Z,100493.38
2019-02-20T05:25:00.331Z,100483.26
2019-02-20T05:25:31.606Z,100483.26
2019-02-20T05:26:02.911Z,100502.73
2019-02-20T05:26:34.167Z,100492.70
2019-02-20T05:27:05.470Z,100500.12
2019-02-20T05:27:36.733Z,100502.73
2019-02-20T05:28:08.021Z,100497.06
2019-02-20T05:28:39.373Z,100497.04
2019-02-20T05:29:10.744Z,100500.12
2019-02-20T05:29:42.055Z,100500.12
2019-02-20T05:30:13.353Z,100506.65
2019-02-20T05:30:44.633Z,100495.32
2019-02-20T05:31:16.633Z,100479.82
2019-02-20T05:31:48.092Z,100495.73
2019-02-20T05:32:19.424Z,100496.15
2019-02-20T05:32:50.662Z,100490.86
2019-02-20T05:33:21.944Z,100494.78
2019-02-20T05:33:53.175Z,100487.81
2019-02-20T05:34:24.514Z,100496.95
2019-02-20T05:34:55.755Z,100496.95
2019-02-20T05:35:27.151Z,100488.64
2019-02-20T05:35:58.431Z,100474.31
2019-02-20T05:36:29.770Z,100474.31
2019-02-20T05:37:01.044Z,100481.70
2019-02-20T05:37:32.479Z,100481.70
2019-02-20T05:38:03.793Z,100488.09
2019-02-20T05:38:35.132Z,100486.79
2019-02-20T05:39:06.352Z,100498.84
2019-02-20T05:39:38.683Z,100495.00
2019-02-20T05:40:09.906Z,100501.52
2019-02-20T05:40:41.438Z,100473.39
2019-02-20T05:41:12.668Z,100507.56
2019-02-20T05:41:43.982Z,100491.59
2019-02-20T05:42:15.259Z,100528.86
2019-02-20T05:42:48.306Z,100504.07
2019-02-20T05:43:19.687Z,100512.72
2019-02-20T05:43:51.017Z,100515.78
2019-02-20T05:44:22.346Z,100514.89
2019-02-20T05:44:53.641Z,100517.91
2019-02-20T05:45:24.877Z,100512.28
2019-02-20T05:45:56.192Z,100527.08
2019-02-20T05:46:27.560Z,100550.46
2019-02-20T05:46:58.921Z,100525.20
2019-02-20T05:47:30.299Z,100520.36
2019-02-20T05:48:01.618Z,100532.99
2019-02-20T05:48:34.051Z,100512.78
2019-02-20T05:49:05.405Z,100513.16
2019-02-20T05:49:36.774Z,100528.12
2019-02-20T05:50:08.135Z,100517.83
2019-02-20T05:50:39.445Z,100531.14
2019-02-20T05:51:10.893Z,100527.23
2019-02-20T05:51:42.244Z,100532.00
2019-02-20T05:52:13.486Z,100528.91
2019-02-20T05:52:44.979Z,100531.52
2019-02-20T05:53:16.208Z,100529.33
2019-02-20T05:53:47.517Z,100531.94
2019-02-20T05:54:18.755Z,100538.87
2019-02-20T05:54:50.068Z,100538.80
2019-02-20T05:55:21.319Z,100532.34
2019-02-20T05:55:52.604Z,100530.15
2019-02-20T05:56:23.844Z,100529.73
2019-02-20T05:56:55.163Z,100534.06
2019-02-20T05:57:26.400Z,100532.28
2019-02-20T05:57:57.728Z,100539.28
2019-02-20T05:58:28.987Z,100537.50
2019-02-20T05:59:01.397Z,100538.77
2019-02-20T05:59:32.634Z,100538.77
2019-02-20T06:00:10.891Z,100529.57
2019-02-20T06:00:42.226Z,100529.98